Latest Weather Observations for Burketown Airport

IDQ60801

Issued at 6:02 pm EST Monday 25 September 2017 (issued every 30 minutes, with the page automatically refreshed every 10 minutes)

About weather observations | Map of weather stations | Latest weather observations for QLD | Other Formats
Station Details ID: 029077 Name: BURKETOWN AIRPORT Lat: -17.75 Lon: 139.54 Height: 5.7 m
Data from the previous 72 hours. | See also: Recent months at Burketown Airport
Date/Time
EST
Temp
°C
App
Temp
°C
Dew
Point
°C
Rel
Hum
%
Delta-T
°C
Wind Press
QNH
hPa
Press
MSL
hPa
Rain since
9am
mm
Dir  Spd
km/h
Gust
km/h
Spd
kts
Gust
kts
25/06:00pm 29.8 29.4 20.1 56 6.4 N 22 30 12 16 1010.1 1010.0 0.0
25/05:30pm 30.6 29.9 19.6 51 7.2 N 22 28 12 15 1009.8 - 0.0
25/05:00pm 30.9 30.4 20.8 55 6.7 N 24 30 13 16 1009.5 - 0.0
25/04:30pm 32.2 31.6 20.5 50 7.8 N 24 33 13 18 1009.4 - 0.0
25/04:00pm 31.8 31.0 20.1 50 7.7 N 24 35 13 19 1009.5 - 0.0
25/03:30pm 33.0 31.7 19.8 45 8.7 N 26 33 14 18 1009.7 - 0.0
25/03:00pm 33.5 31.9 18.4 40 9.8 N 24 32 13 17 1009.8 1009.7 0.0
25/02:30pm 33.2 31.7 18.5 41 9.6 N 24 32 13 17 1010.3 - 0.0
25/02:00pm 33.4 31.8 18.3 40 9.8 N 24 35 13 19 1010.7 - 0.0
25/01:30pm 32.7 31.5 18.5 43 9.2 N 22 33 12 18 1011.2 - 0.0
25/01:00pm 32.7 31.9 19.2 44 8.9 N 22 33 12 18 1011.8 - 0.0
25/12:30pm 32.1 31.1 19.7 48 8.2 N 24 35 13 19 1012.3 - 0.0
25/12:00pm 32.9 31.5 19.7 45 8.7 N 26 37 14 20 1012.9 1012.8 0.0
25/11:30am 31.7 30.9 20.0 50 7.7 N 24 35 13 19 1013.4 - 0.0
25/11:00am 31.5 30.7 20.1 50 7.5 N 24 33 13 18 1013.6 - 0.0
25/10:30am 31.8 31.2 20.4 51 7.6 N 24 32 13 17 1014.0 - 0.0
25/10:00am 30.8 29.6 20.1 53 7.1 N 26 37 14 20 1014.2 - 0.0
25/09:30am 29.4 28.5 21.4 62 5.4 NNE 28 39 15 21 1014.2 - 0.0
25/09:00am 28.3 27.4 20.6 63 5.1 N 26 39 14 21 1014.1 1014.0 0.0
25/08:30am 27.9 28.3 21.7 69 4.2 NNE 22 32 12 17 1013.9 - 0.0
25/08:00am 26.6 27.1 21.1 72 3.6 N 20 28 11 15 1013.2 - 0.0
25/07:30am 24.1 24.8 21.6 86 1.7 NE 20 28 11 15 1013.5 - 0.0
25/07:10am 23.6 22.9 23.6 100 0.0 ENE 33 56 18 30 1012.8 - 0.0
25/07:05am 20.6 18.9 20.6 100 0.0 ENE 30 41 16 22 1012.8 - 0.0
25/07:00am 19.9 23.6 19.9 100 0.0 CALM 0 0 0 0 1011.7 - 0.0
25/06:30am 19.7 23.2 19.5 99 0.1 CALM 0 0 0 0 1011.5 - 0.0
25/06:00am 20.2 23.9 20.0 99 0.1 CALM 0 0 0 0 1011.3 1011.2 0.0
25/05:30am 20.5 23.2 20.3 99 0.1 NW 6 11 3 6 1010.7 - 0.0
25/05:00am 20.6 22.8 20.3 98 0.2 WNW 9 11 5 6 1010.3 - 0.0
25/04:30am 21.5 23.7 21.2 98 0.2 WNW 11 15 6 8 1010.1 - 0.0
25/04:00am 21.6 23.8 21.1 97 0.3 W 11 13 6 7 1009.7 - 0.0
25/03:30am 22.1 24.5 21.6 97 0.3 W 11 15 6 8 1009.7 - 0.0
25/03:00am 22.2 24.2 21.5 96 0.5 W 13 17 7 9 1009.6 1009.5 0.0
25/02:30am 22.5 24.6 21.7 95 0.5 WNW 13 17 7 9 1009.7 - 0.0
25/02:00am 22.7 24.8 21.7 94 0.7 NW 13 17 7 9 1009.8 - 0.0
25/01:30am 23.0 24.7 21.6 92 0.9 NW 15 19 8 10 1009.9 - 0.0
25/01:00am 23.4 25.2 21.8 91 1.1 NNW 15 19 8 10 1010.1 - 0.0
25/12:30am 23.3 24.9 21.4 89 1.3 NNW 15 19 8 10 1010.4 - 0.0
25/12:00am 22.9 23.8 20.8 88 1.4 NNW 17 19 9 10 1010.7 1010.6 0.0
 
Date/Time
EST
Temp
°C
App
Temp
°C
Dew
Point
°C
Rel
Hum
%
Delta-T
°C
Wind Press
QNH
hPa
Press
MSL
hPa
Rain since
9am
mm
Dir  Spd
km/h
Gust
km/h
Spd
kts
Gust
kts
24/11:30pm 22.2 23.7 19.7 86 1.6 NW 11 13 6 7 1011.0 - 0.0
24/11:00pm 22.9 24.2 20.1 84 1.8 NW 13 13 7 7 1011.1 - 0.0
24/10:30pm 23.7 25.5 20.4 82 2.1 NNW 11 13 6 7 1011.3 - 0.0
24/10:00pm 24.4 26.4 20.7 80 2.4 N 11 15 6 8 1011.5 - 0.0
24/09:30pm 24.9 27.1 21.2 80 2.4 N 11 15 6 8 1011.4 - 0.0
24/09:00pm 25.0 27.8 22.3 85 1.8 NNE 11 15 6 8 1011.2 1011.1 0.0
24/08:30pm 25.4 28.1 22.9 86 1.7 NE 13 17 7 9 1011.0 - 0.0
24/08:00pm 25.8 28.2 22.9 84 2.0 NNE 15 17 8 9 1010.7 - 0.0
24/07:30pm 26.4 28.8 22.9 81 2.4 NNE 15 20 8 11 1010.3 - 0.0
24/07:00pm 26.9 28.7 22.5 77 3.0 NNE 17 24 9 13 1010.0 - 0.0
24/06:30pm 28.1 29.4 22.3 70 3.9 N 19 22 10 12 1009.8 - 0.0
24/06:00pm 29.3 30.4 22.3 66 4.7 N 20 26 11 14 1009.5 1009.4 0.0
24/05:30pm 29.8 30.7 22.0 63 5.3 N 20 28 11 15 1009.2 - 0.0
24/05:00pm 30.8 30.8 21.6 58 6.2 N 24 33 13 18 1009.2 - 0.0
24/04:30pm 31.7 31.6 21.5 54 6.9 N 24 35 13 19 1009.2 - 0.0
24/04:00pm 32.1 31.1 21.3 53 7.3 N 28 39 15 21 1009.2 - 0.0
24/03:30pm 32.1 31.1 20.4 50 7.8 N 26 35 14 19 1009.5 - 0.0
24/03:00pm 32.5 30.8 19.7 46 8.5 N 28 43 15 23 1009.8 1009.7 0.0
24/02:30pm 33.3 30.9 19.0 42 9.4 N 30 43 16 23 1010.3 - 0.0
24/02:00pm 32.7 29.2 16.5 37 10.2 N 30 43 16 23 1010.7 - 0.0
24/01:30pm 33.8 29.6 15.7 33 11.3 N 32 41 17 22 1011.1 - 0.0
24/01:00pm 33.8 29.8 15.3 33 11.5 N 30 39 16 21 1011.4 - 0.0
24/12:30pm 33.6 30.5 16.5 36 10.8 N 28 37 15 20 1011.8 - 0.0
24/12:00pm 33.1 29.1 15.1 33 11.2 N 30 43 16 23 1012.2 1012.1 0.0
24/11:47am 33.6 30.6 16.9 37 10.6 N 28 46 15 25 1012.4 - 0.0
24/11:30am 34.0 31.0 16.8 35 10.9 N 28 41 15 22 1012.7 - 0.0
24/11:00am 32.5 29.3 16.3 37 10.2 N 28 43 15 23 1013.2 - 0.0
24/10:30am 33.0 30.5 17.2 39 10.1 N 26 37 14 20 1013.4 - 0.0
24/10:00am 31.5 29.3 17.8 44 8.8 N 26 33 14 18 1013.5 - 0.0
24/09:30am 30.8 29.6 19.2 50 7.6 N 24 32 13 17 1013.6 - 0.0
24/09:00am 29.1 28.6 20.0 58 6.0 N 22 28 12 15 1013.6 1013.5 0.2
24/08:30am 28.1 29.4 20.9 65 4.8 N 15 20 8 11 1013.5 - 0.2
24/08:00am 26.3 28.2 20.6 71 3.7 N 11 13 6 7 1013.5 - 0.2
24/07:30am 24.3 27.2 19.8 76 2.9 NE 4 11 2 6 1013.1 - 0.2
24/07:00am 22.7 24.0 20.2 86 1.6 NE 13 17 7 9 1012.8 - 0.2
24/06:30am 21.7 23.6 18.9 84 1.8 NNW 7 13 4 7 1012.7 - 0.2
24/06:00am 23.7 23.7 19.0 75 3.0 N 17 43 9 23 1011.6 1011.5 0.2
24/05:44am 23.3 23.1 22.8 97 0.3 ENE 28 46 15 25 1011.7 - 0.2
24/05:40am 21.9 21.3 21.9 100 0.0 E 28 41 15 22 1011.9 - 0.2
24/05:30am 20.8 23.0 20.5 98 0.2 W 9 13 5 7 1010.8 - 0.2
24/05:00am 21.5 23.4 21.3 99 0.1 WSW 13 17 7 9 1010.6 - 0.2
24/04:30am 21.7 24.0 21.4 98 0.2 W 11 15 6 8 1010.3 - 0.2
24/04:00am 22.0 24.5 21.8 99 0.1 W 11 15 6 8 1010.4 - 0.2
24/03:30am 22.1 24.6 21.8 98 0.2 W 11 13 6 7 1010.5 - 0.2
24/03:00am 22.5 24.5 22.2 98 0.2 W 15 15 8 8 1010.5 1010.4 0.2
24/02:30am 22.4 25.0 21.9 97 0.3 W 11 15 6 8 1010.8 - 0.2
24/02:00am 22.8 25.2 22.3 97 0.3 W 13 15 7 8 1010.9 - 0.2
24/01:30am 22.9 25.3 22.2 96 0.5 WNW 13 17 7 9 1011.2 - 0.2
24/01:00am 22.8 25.6 22.3 97 0.3 WNW 11 17 6 9 1011.3 - 0.2
24/12:30am 22.4 24.7 21.4 94 0.7 NNW 11 13 6 7 1011.5 - 0.2
24/12:00am 22.8 25.2 21.6 93 0.8 WNW 11 13 6 7 1011.7 1011.6 0.2
 
Date/Time
EST
Temp
°C
App
Temp
°C
Dew
Point
°C
Rel
Hum
%
Delta-T
°C
Wind Press
QNH
hPa
Press
MSL
hPa
Rain since
9am
mm
Dir  Spd
km/h
Gust
km/h
Spd
kts
Gust
kts
23/11:30pm 22.5 24.6 21.0 91 1.0 W 11 13 6 7 1012.0 - 0.2
23/11:00pm 23.5 26.4 21.8 90 1.1 NW 9 11 5 6 1012.2 - 0.2
23/10:30pm 24.1 26.6 22.4 90 1.1 NNW 13 15 7 8 1012.3 - 0.2
23/10:00pm 24.4 27.4 22.7 90 1.1 NW 11 15 6 8 1012.4 - 0.2
23/09:30pm 24.7 27.7 22.6 88 1.4 NNW 11 15 6 8 1012.2 - 0.2
23/09:00pm 25.2 27.8 22.7 86 1.7 NNW 13 17 7 9 1012.1 1012.0 0.2
23/08:30pm 25.5 28.2 22.2 82 2.2 N 11 13 6 7 1012.0 - 0.2
23/08:00pm 26.1 28.5 22.2 79 2.6 N 13 17 7 9 1011.5 - 0.2
23/07:30pm 26.7 28.5 21.9 75 3.2 N 15 20 8 11 1011.4 - 0.2
23/07:00pm 27.2 28.4 21.5 71 3.8 NNE 17 22 9 12 1011.1 - 0.2
23/06:30pm 28.4 28.5 20.4 62 5.3 NNE 20 28 11 15 1011.0 - 0.2
23/06:00pm 30.3 29.1 17.4 46 8.2 N 20 28 11 15 1010.6 1010.5 0.2
23/05:30pm 31.5 29.7 17.0 41 9.2 N 22 28 12 15 1010.6 - 0.2
23/05:00pm 31.5 29.3 17.8 44 8.8 N 26 33 14 18 1010.6 - 0.2
23/04:30pm 32.6 30.3 17.6 40 9.6 N 26 35 14 19 1010.6 - 0.2
23/04:00pm 33.2 30.9 18.5 41 9.6 N 28 41 15 22 1010.6 - 0.2
23/03:30pm 33.8 31.2 17.9 38 10.3 N 28 39 15 21 1010.7 - 0.2
23/03:00pm 34.1 32.4 19.0 41 9.9 N 26 35 14 19 1011.0 1010.9 0.2
23/02:30pm 34.7 32.2 17.0 35 11.3 N 26 33 14 18 1011.3 - 0.2
23/02:00pm 34.4 32.7 17.2 36 11.0 N 22 32 12 17 1011.8 - 0.2
23/01:30pm 33.7 32.2 17.8 38 10.3 N 22 30 12 16 1012.1 - 0.2
23/01:00pm 33.7 32.6 18.6 40 9.8 N 22 33 12 18 1012.7 - 0.2
23/12:30pm 33.5 31.7 18.8 41 9.6 N 26 37 14 20 1013.2 - 0.2
23/12:00pm 33.8 32.7 19.5 43 9.4 N 24 33 13 18 1013.7 1013.6 0.2
23/11:30am 32.4 31.5 18.2 42 9.2 N 20 30 11 16 1014.3 - 0.2
23/11:00am 31.7 31.8 20.0 50 7.7 N 19 26 10 14 1014.7 - 0.0
23/10:30am 31.1 31.2 20.4 53 7.1 N 20 28 11 15 1015.0 - 0.0
23/10:00am 30.0 30.5 21.1 59 5.9 N 20 35 11 19 1015.1 - 0.0
23/09:30am 28.7 29.0 21.5 65 4.8 N 22 30 12 16 1015.2 - 0.0
23/09:00am 27.4 28.6 21.4 70 4.0 N 17 28 9 15 1015.1 1015.0 0.0
23/08:30am 25.3 28.2 21.8 81 2.3 N 9 13 5 7 1014.7 - 0.0
23/08:00am 23.8 27.6 22.8 94 0.7 NNE 7 13 4 7 1014.5 - 0.0
23/07:30am 22.4 24.5 22.4 100 0.0 NNE 15 28 8 15 1014.2 - 0.0
23/07:00am 21.7 24.2 21.7 100 0.0 WNW 11 15 6 8 1012.7 - 0.0
23/06:30am 21.8 24.7 21.8 100 0.0 NW 9 13 5 7 1012.3 - 0.0
23/06:00am 21.9 24.9 21.9 100 0.0 W 9 13 5 7 1012.0 1011.9 0.0
23/05:30am 21.8 24.3 21.8 100 0.0 WNW 11 13 6 7 1011.7 - 0.0
23/05:00am 20.5 22.7 20.5 100 0.0 WSW 9 15 5 8 1011.5 - 0.0
23/04:30am 20.7 23.0 20.7 100 0.0 W 9 11 5 6 1011.3 - 0.0
23/04:00am 21.0 22.7 21.0 100 0.0 W 13 15 7 8 1010.9 - 0.0
23/03:30am 20.7 22.5 20.4 98 0.2 W 11 11 6 6 1011.2 - 0.0
23/03:00am 21.1 23.5 20.8 98 0.2 WNW 9 13 5 7 1011.4 1011.3 0.0
23/02:30am 21.6 23.9 21.3 98 0.2 W 11 13 6 7 1011.5 - 0.0
23/02:00am 22.2 24.8 21.9 98 0.2 WNW 11 15 6 8 1011.8 - 0.0
23/01:30am 22.3 24.7 21.6 96 0.5 W 11 13 6 7 1012.0 - 0.0
23/01:00am 22.5 25.0 21.7 95 0.5 W 11 13 6 7 1012.2 - 0.0
23/12:30am 23.0 26.0 22.0 94 0.7 WNW 9 15 5 8 1012.6 - 0.0
23/12:00am 23.3 25.5 21.9 92 0.9 NW 13 17 7 9 1012.8 1012.7 0.0
 
Date/Time
EST
Temp
°C
App
Temp
°C
Dew
Point
°C
Rel
Hum
%
Delta-T
°C
Wind Press
QNH
hPa
Press
MSL
hPa
Rain since
9am
mm
Dir  Spd
km/h
Gust
km/h
Spd
kts
Gust
kts
22/11:30pm 23.9 25.9 22.2 90 1.1 NW 15 20 8 11 1013.1 - 0.0
22/11:00pm 24.2 26.1 22.1 88 1.4 NW 15 19 8 10 1013.3 - 0.0
22/10:30pm 24.1 26.5 22.2 89 1.3 NNW 13 17 7 9 1013.2 - 0.0
22/10:00pm 24.1 26.8 22.2 89 1.3 NNW 11 15 6 8 1013.0 - 0.0
22/09:30pm 24.3 27.0 22.2 88 1.4 NNW 11 13 6 7 1012.9 - 0.0
22/09:00pm 24.8 27.7 22.5 87 1.5 N 11 13 6 7 1012.8 1012.7 0.0
22/08:30pm 25.3 28.0 22.8 86 1.7 N 13 15 7 8 1012.5 - 0.0
22/08:00pm 25.8 28.5 22.9 84 2.0 N 13 17 7 9 1012.2 - 0.0
22/07:30pm 26.4 28.2 22.5 79 2.6 N 17 20 9 11 1011.9 - 0.0
22/07:00pm 27.3 29.2 22.0 73 3.6 N 15 20 8 11 1011.6 - 0.0
22/06:30pm 28.5 29.5 21.8 67 4.5 N 19 22 10 12 1011.3 - 0.0

Other Formats:

Comma delimited format used in spreadsheet applications
http://www.bom.gov.au/fwo/IDQ60801/IDQ60801.94260.axf

JavaScript Object Notation format (JSON) in row-major order
http://www.bom.gov.au/fwo/IDQ60801/IDQ60801.94260.json